Time;durP1;ratioP1;P1;durP2;ratioP2;P2;SDS_P1;SDS_P2;PMS_P1;PMS_P2;Temp;Humidity;BMP_temperature;BMP_pressure;BME280_temperature;BME280_humidity;BME280_pressure;Samples;Min_cycle;Max_cycle;Signal;HPM_P1;HPM_P2
2021/05/09 00:06:02;;;;;;;12.02;5.60;;;205.50;2252.80;;;;;;5013979;28;20045;-87
2021/05/09 00:09:01;;;;;;;8.80;5.50;;;205.50;2252.80;;;;;;4991226;28;20022;-86
2021/05/09 00:12:01;;;;;;;11.30;5.72;;;205.50;2252.80;;;;;;4956757;28;20089;-88
2021/05/09 00:15:37;;;;;;;10.82;6.10;;;205.50;2252.80;;;;;;4926673;29;20118;-86
2021/05/09 00:22:06;;;;;;;11.05;5.43;;;205.40;2252.80;;;;;;4865092;29;20086;-86
2021/05/09 00:26:03;;;;;;;9.25;5.40;;;205.50;2252.80;;;;;;4865721;29;20063;-85
2021/05/09 00:35:59;;;;;;;11.50;5.40;;;205.50;2252.80;;;;;;4845872;29;20106;-85
2021/05/09 00:42:57;;;;;;;6.95;4.55;;;205.30;2252.80;;;;;;4842540;29;19988;-87
2021/05/09 00:45:53;;;;;;;8.50;5.03;;;205.10;2252.80;;;;;;4901920;29;20049;-85
2021/05/09 00:56:05;;;;;;;7.90;5.20;;;204.80;2252.80;;;;;;4909529;29;20074;-86
2021/05/09 00:59:27;;;;;;;13.93;7.82;;;205.00;2252.80;;;;;;4921323;29;20031;-87
2021/05/09 01:02:18;;;;;;;10.38;6.32;;;205.10;2252.80;;;;;;4897648;29;20037;-86
2021/05/09 01:05:16;;;;;;;14.18;6.60;;;205.30;2252.80;;;;;;4898296;29;20083;-86
2021/05/09 01:15:46;;;;;;;11.27;6.00;;;179.20;2252.80;;;;;;4923414;29;20061;-85
2021/05/09 01:47:00;;;;;;;10.82;6.13;;;179.70;2252.80;;;;;;4912835;29;20051;-84
2021/05/09 01:50:51;;;;;;;10.90;5.70;;;180.00;2252.80;;;;;;4869297;29;20034;-84
2021/05/09 01:53:57;;;;;;;10.75;6.20;;;180.10;2252.80;;;;;;4993497;28;20040;-82
2021/05/09 02:28:53;;;;;;;10.20;5.72;;;154.50;2252.80;;;;;;4812137;29;20045;-84
2021/05/09 02:32:37;;;;;;;10.75;5.43;;;154.50;2252.80;;;;;;4788519;30;20087;-84
2021/05/09 02:46:13;;;;;;;10.43;6.45;;;179.20;2252.80;;;;;;4777499;30;20128;-84
2021/05/09 02:53:24;;;;;;;7.65;4.90;;;179.30;2252.80;;;;;;4757613;30;20058;-84
2021/05/09 03:00:04;;;;;;;7.35;4.80;;;179.40;2252.80;;;;;;4793864;30;20038;-82
2021/05/09 03:20:15;;;;;;;9.00;4.72;;;179.20;2252.80;;;;;;4898501;29;20125;-84
2021/05/09 03:27:08;;;;;;;10.32;5.43;;;179.30;2252.80;;;;;;4828003;29;20121;-83
2021/05/09 03:34:19;;;;;;;12.35;6.72;;;154.30;2252.80;;;;;;4865676;29;20166;-83
2021/05/09 03:48:17;;;;;;;9.57;5.95;;;154.30;2252.80;;;;;;4961656;29;20059;-84
2021/05/09 04:09:21;;;;;;;10.20;4.93;;;154.20;2252.80;;;;;;4982895;28;20408;-83
2021/05/09 04:12:39;;;;;;;8.07;5.03;;;153.90;2252.80;;;;;;5040394;28;20059;-82
2021/05/09 04:16:08;;;;;;;9.43;5.35;;;154.10;2252.80;;;;;;4965781;28;20038;-83
2021/05/09 04:23:22;;;;;;;10.73;6.00;;;154.40;2252.80;;;;;;4944468;29;20043;-83
2021/05/09 04:27:04;;;;;;;10.70;6.45;;;154.10;2252.80;;;;;;4911425;29;20111;-81
2021/05/09 04:30:31;;;;;;;10.25;6.28;;;154.00;2252.80;;;;;;4888874;29;20025;-81
2021/05/09 04:34:01;;;;;;;12.05;6.70;;;154.30;2252.80;;;;;;4883982;29;20033;-83
2021/05/09 04:50:33;;;;;;;15.45;7.60;;;154.50;2252.80;;;;;;4834863;29;20061;-78
2021/05/09 05:57:08;;;;;;;10.77;5.55;;;230.40;2252.80;;;;;;5003427;28;20101;-86
2021/05/09 06:06:31;;;;;;;9.32;5.20;;;230.70;2252.80;;;;;;4981280;28;20519;-87
2021/05/09 06:09:47;;;;;;;9.52;5.63;;;231.00;2252.80;;;;;;4982504;28;20060;-87
2021/05/09 06:12:42;;;;;;;12.25;6.00;;;231.20;2252.80;;;;;;4993735;28;20121;-86
2021/05/09 06:16:11;;;;;;;9.25;5.82;;;231.20;2252.80;;;;;;4919725;29;20039;-87
2021/05/09 06:19:42;;;;;;;7.47;4.78;;;256.00;2252.80;;;;;;4919352;29;20591;-89
2021/05/09 06:29:59;;;;;;;9.85;5.40;;;256.80;2252.80;;;;;;5035084;28;20513;-86
2021/05/09 06:37:01;;;;;;;10.77;4.45;;;281.90;2278.40;;;;;;5034845;28;20067;-86
2021/05/09 06:47:08;;;;;;;8.88;4.90;;;282.50;2278.40;;;;;;4973898;28;20408;-84
2021/05/09 06:57:02;;;;;;;15.35;7.28;;;307.90;2304.00;;;;;;4966813;28;20049;-85
2021/05/09 07:06:37;;;;;;;9.98;5.13;;;332.90;2176.00;;;;;;5074585;28;20409;-85
2021/05/09 07:12:44;;;;;;;9.43;5.85;;;333.30;2073.60;;;;;;4962298;28;20042;-84
2021/05/09 07:15:16;;;;;;;10.43;5.78;;;333.40;1971.20;;;;;;4973014;28;20125;-85
2021/05/09 07:18:15;;;;;;;11.77;6.90;;;333.60;1971.20;;;;;;5054170;28;20036;-82
2021/05/09 07:21:58;;;;;;;11.18;6.82;;;358.60;1996.80;;;;;;5071499;28;20405;-88
2021/05/09 07:24:15;;;;;;;15.57;9.50;;;358.80;1920.00;;;;;;5086349;28;20032;-83
2021/05/09 07:26:42;;;;;;;13.18;6.50;;;359.10;1868.80;;;;;;5075462;28;20082;-82
2021/05/09 07:29:08;;;;;;;8.13;5.00;;;359.20;1843.20;;;;;;5092430;28;20032;-82
2021/05/09 07:31:41;;;;;;;9.00;5.47;;;359.10;1766.40;;;;;;5075488;28;20036;-85
2021/05/09 07:34:09;;;;;;;11.52;6.15;;;359.20;1766.40;;;;;;5075618;28;20129;-83
2021/05/09 07:36:39;;;;;;;16.13;5.57;;;384.10;1817.60;;;;;;5075193;28;20078;-85
2021/05/09 07:39:11;;;;;;;9.90;4.82;;;384.30;1766.40;;;;;;5075787;28;20465;-82
2021/05/09 07:41:37;;;;;;;9.43;5.45;;;384.50;1766.40;;;;;;5075851;28;20431;-81
2021/05/09 07:44:07;;;;;;;20.70;8.55;;;384.50;1766.40;;;;;;5075443;28;20024;-81
2021/05/09 07:46:33;;;;;;;13.88;5.72;;;384.70;1766.40;;;;;;5075658;28;20381;-86
2021/05/09 07:48:59;;;;;;;14.13;9.63;;;384.80;1740.80;;;;;;5075849;28;20024;-87
2021/05/09 07:51:25;;;;;;;8.98;6.18;;;409.60;1740.80;;;;;;5075477;28;20081;-86
2021/05/09 07:53:51;;;;;;;10.90;6.68;;;409.70;1715.20;;;;;;5072433;28;20450;-86
2021/05/09 07:56:18;;;;;;;9.07;5.60;;;409.90;1715.20;;;;;;5075846;28;20464;-86
2021/05/09 07:58:44;;;;;;;7.35;4.95;;;410.10;1664.00;;;;;;5074865;28;20020;-86
2021/05/09 08:01:10;;;;;;;11.93;6.00;;;410.30;1638.40;;;;;;5075777;28;20450;-85
2021/05/09 08:03:36;;;;;;;7.38;5.07;;;435.20;1536.00;;;;;;5075742;28;20065;-85
2021/05/09 08:06:01;;;;;;;8.00;4.60;;;435.20;1484.80;;;;;;5075773;28;20330;-83
2021/05/09 08:08:28;;;;;;;8.18;5.03;;;435.30;1459.20;;;;;;5075549;28;20030;-83
2021/05/09 08:10:54;;;;;;;7.35;4.55;;;435.50;1459.20;;;;;;5076490;28;20077;-86
2021/05/09 08:13:20;;;;;;;8.75;4.88;;;435.50;1459.20;;;;;;5078373;28;20032;-83
2021/05/09 08:15:46;;;;;;;10.98;6.63;;;435.30;1408.00;;;;;;5075711;28;20030;-84
2021/05/09 08:18:11;;;;;;;8.88;5.35;;;435.60;1408.00;;;;;;5093839;28;20028;-85
2021/05/09 08:20:39;;;;;;;16.20;9.52;;;435.90;1408.00;;;;;;5062029;28;20209;-84
2021/05/09 08:23:05;;;;;;;12.95;8.68;;;436.10;1382.40;;;;;;5056532;28;20064;-86
2021/05/09 08:25:32;;;;;;;11.40;6.68;;;460.90;1382.40;;;;;;5054146;28;20027;-81
2021/05/09 08:27:57;;;;;;;12.15;7.25;;;461.00;1356.80;;;;;;5055503;28;20082;-84
2021/05/09 08:30:25;;;;;;;12.40;7.32;;;461.00;1356.80;;;;;;5056649;28;20021;-82
2021/05/09 08:32:51;;;;;;;11.93;8.38;;;461.10;1356.80;;;;;;5060501;28;20028;-83
2021/05/09 08:35:21;;;;;;;10.10;6.35;;;461.20;1356.80;;;;;;5059897;28;20128;-83
2021/05/09 08:37:47;;;;;;;12.18;5.30;;;461.40;1280.00;;;;;;5058876;28;20045;-82
2021/05/09 08:40:16;;;;;;;7.45;5.15;;;461.50;1254.40;;;;;;5076414;28;20039;-82
2021/05/09 08:42:43;;;;;;;7.97;5.15;;;461.70;1254.40;;;;;;5076921;28;20028;-82
2021/05/09 08:45:10;;;;;;;13.70;6.40;;;486.40;1228.80;;;;;;5058622;28;20067;-82
2021/05/09 08:47:37;;;;;;;10.20;6.15;;;486.40;1228.80;;;;;;5058566;28;20025;-81
2021/05/09 08:50:14;;;;;;;7.80;4.20;;;486.70;1254.40;;;;;;5083375;28;20029;-81
2021/05/09 08:52:43;;;;;;;8.70;5.20;;;461.70;1203.20;;;;;;5078566;28;20118;-77
2021/05/09 08:55:11;;;;;;;11.65;5.90;;;486.40;1203.20;;;;;;5094750;28;20067;-75
2021/05/09 08:57:40;;;;;;;13.25;6.50;;;486.60;1203.20;;;;;;5078262;28;20020;-77
2021/05/09 09:00:08;;;;;;;23.80;11.00;;;486.80;1152.00;;;;;;5077658;28;20139;-77
2021/05/09 09:02:33;;;;;;;10.52;5.47;;;486.80;1152.00;;;;;;5078121;28;20064;-77
2021/05/09 09:05:00;;;;;;;12.82;5.43;;;487.00;1100.80;;;;;;5081424;28;20024;-78
2021/05/09 09:07:46;;;;;;;10.23;5.65;;;487.10;1126.40;;;;;;5096167;28;20110;-77
2021/05/09 09:10:31;;;;;;;23.85;9.10;;;512.00;1126.40;;;;;;5096273;28;20024;-78
2021/05/09 09:13:01;;;;;;;10.48;4.68;;;512.20;1126.40;;;;;;5096248;28;20032;-81
2021/05/09 09:16:00;;;;;;;7.50;4.95;;;512.40;1126.40;;;;;;5077488;28;20111;-82
2021/05/09 09:18:43;;;;;;;12.75;4.80;;;512.50;1126.40;;;;;;5041119;28;20043;-79
2021/05/09 09:21:19;;;;;;;;;;;512.50;1126.40;;;;;;5078136;28;20020;-81
2021/05/09 09:23:47;;;;;;;10.88;6.53;;;512.60;1100.80;;;;;;5077069;28;19912;-80
2021/05/09 09:26:36;;;;;;;6.47;3.00;;;512.90;1126.40;;;;;;5078551;28;20109;-81
2021/05/09 09:29:28;;;;;;;7.85;5.82;;;537.60;1075.20;;;;;;5077652;28;20180;-82
2021/05/09 09:31:56;;;;;;;11.00;6.25;;;512.90;947.20;;;;;;5066593;28;20084;-81
2021/05/09 09:34:35;;;;;;;5.03;2.88;;;537.80;998.40;;;;;;5077663;28;20020;-81
2021/05/09 09:37:02;;;;;;;12.88;4.97;;;537.60;896.00;;;;;;5077542;28;20031;-80
2021/05/09 09:39:43;;;;;;;7.28;4.70;;;538.00;870.40;;;;;;5077558;28;20024;-81
2021/05/09 09:42:09;;;;;;;8.85;5.70;;;538.30;870.40;;;;;;5094740;28;20039;-80
2021/05/09 09:44:35;;;;;;;5.75;4.35;;;563.20;921.60;;;;;;5077459;28;20020;-79
2021/05/09 09:47:00;;;;;;;6.45;3.92;;;563.40;870.40;;;;;;5077545;28;20138;-80
2021/05/09 09:49:37;;;;;;;10.63;5.90;;;563.60;921.60;;;;;;5069258;28;20488;-79
2021/05/09 09:52:10;;;;;;;8.32;4.85;;;563.70;972.80;;;;;;5074946;28;20025;-78
2021/05/09 09:54:48;;;;;;;6.97;4.28;;;563.80;947.20;;;;;;5056147;28;20115;-79
2021/05/09 09:57:23;;;;;;;8.80;5.50;;;563.90;972.80;;;;;;5075056;28;20024;-78
2021/05/09 10:00:12;;;;;;;8.18;4.00;;;564.10;998.40;;;;;;5056719;28;20182;-78
2021/05/09 10:02:45;;;;;;;9.73;6.10;;;588.80;972.80;;;;;;5058477;28;20029;-79
2021/05/09 10:05:11;;;;;;;9.43;4.10;;;588.80;972.80;;;;;;5075299;28;20021;-78
2021/05/09 10:07:38;;;;;;;12.70;3.35;;;588.90;947.20;;;;;;5056976;28;20027;-80
2021/05/09 10:10:04;;;;;;;5.57;3.40;;;588.90;947.20;;;;;;5074421;28;20024;-79
2021/05/09 10:12:31;;;;;;;8.70;5.82;;;589.00;870.40;;;;;;5060405;28;20388;-80
2021/05/09 10:14:57;;;;;;;8.90;6.35;;;589.00;921.60;;;;;;5070517;28;20054;-80
2021/05/09 10:17:25;;;;;;;8.20;4.82;;;589.20;921.60;;;;;;5073378;28;20048;-80
2021/05/09 10:19:52;;;;;;;8.32;4.70;;;589.40;921.60;;;;;;5073331;28;20107;-79
2021/05/09 10:22:31;;;;;;;10.85;5.93;;;589.50;896.00;;;;;;5093172;28;20350;-79
2021/05/09 10:24:58;;;;;;;9.85;4.43;;;589.60;921.60;;;;;;5070867;28;20016;-81
2021/05/09 10:27:41;;;;;;;7.55;3.03;;;589.70;921.60;;;;;;5076242;28;20024;-80
2021/05/09 10:30:13;;;;;;;4.40;2.63;;;614.60;896.00;;;;;;5075990;28;20113;-79
2021/05/09 10:32:39;;;;;;;6.35;3.13;;;614.60;896.00;;;;;;5108125;28;20046;-79
2021/05/09 10:35:09;;;;;;;5.80;2.65;;;614.50;896.00;;;;;;5093259;28;20464;-80
2021/05/09 10:37:38;;;;;;;5.85;2.67;;;614.70;896.00;;;;;;5076394;28;20504;-78
2021/05/09 10:40:36;;;;;;;6.22;3.03;;;614.70;870.40;;;;;;5076142;28;20020;-78
2021/05/09 10:43:04;;;;;;;20.27;7.00;;;614.80;870.40;;;;;;5076357;28;20028;-80
2021/05/09 10:45:36;;;;;;;9.07;4.32;;;614.90;870.40;;;;;;5076480;28;20369;-78
2021/05/09 10:48:15;;;;;;;8.20;3.83;;;615.00;896.00;;;;;;5095091;28;20449;-79
2021/05/09 10:50:49;;;;;;;8.93;4.47;;;615.10;870.40;;;;;;5076704;28;20032;-80
2021/05/09 10:53:33;;;;;;;11.95;6.25;;;615.30;819.20;;;;;;5076310;28;20465;-82
2021/05/09 10:56:13;;;;;;;16.30;5.85;;;640.10;819.20;;;;;;5076228;28;20032;-81
2021/05/09 10:58:39;;;;;;;8.40;4.43;;;640.00;793.60;;;;;;5081884;28;20028;-77
2021/05/09 11:01:08;;;;;;;10.60;5.57;;;640.20;793.60;;;;;;5075546;28;20047;-76
2021/05/09 11:03:40;;;;;;;5.70;3.80;;;640.40;819.20;;;;;;5098412;28;20024;-78
2021/05/09 11:06:14;;;;;;;5.55;2.88;;;640.40;793.60;;;;;;5080371;28;20084;-78
2021/05/09 11:08:43;;;;;;;5.93;3.28;;;640.70;819.20;;;;;;5080614;28;20051;-78
2021/05/09 11:11:13;;;;;;;7.97;3.17;;;640.80;768.00;;;;;;5079808;28;20052;-80
2021/05/09 11:14:03;;;;;;;4.32;2.47;;;665.60;793.60;;;;;;5081696;28;20047;-79
2021/05/09 11:16:40;;;;;;;4.63;2.60;;;665.70;819.20;;;;;;5071500;28;20048;-78
2021/05/09 11:19:07;;;;;;;7.75;3.03;;;665.80;793.60;;;;;;5080665;28;20021;-77
2021/05/09 11:21:44;;;;;;;8.05;2.75;;;665.80;768.00;;;;;;5079671;28;20012;-78
2021/05/09 11:24:17;;;;;;;6.30;2.10;;;665.90;793.60;;;;;;5078526;28;20020;-79
2021/05/09 11:26:46;;;;;;;7.40;2.00;;;665.90;768.00;;;;;;5094345;28;20048;-79
2021/05/09 11:29:13;;;;;;;6.28;2.42;;;665.90;793.60;;;;;;5079177;28;20032;-80
2021/05/09 11:31:41;;;;;;;5.97;2.10;;;666.20;768.00;;;;;;5095313;28;20046;-80
2021/05/09 11:34:07;;;;;;;4.90;1.55;;;666.20;768.00;;;;;;5079462;28;20025;-79
2021/05/09 11:36:35;;;;;;;15.65;2.80;;;665.90;742.40;;;;;;5070732;28;20035;-79
2021/05/09 11:39:11;;;;;;;3.45;2.00;;;666.00;768.00;;;;;;5073551;28;20020;-79
2021/05/09 11:41:57;;;;;;;5.57;3.17;;;666.50;742.40;;;;;;5055648;28;20027;-79
2021/05/09 11:44:26;;;;;;;5.25;2.15;;;691.20;742.40;;;;;;5056510;28;20366;-80
2021/05/09 11:46:53;;;;;;;7.28;2.83;;;691.50;768.00;;;;;;5055676;28;20024;-79
2021/05/09 11:49:38;;;;;;;4.45;2.40;;;692.10;768.00;;;;;;5076103;28;20012;-76
2021/05/09 11:52:21;;;;;;;7.15;2.65;;;691.60;742.40;;;;;;5075530;28;20025;-79
2021/05/09 11:54:47;;;;;;;7.47;3.03;;;691.80;768.00;;;;;;5070241;28;20031;-77
2021/05/09 11:57:14;;;;;;;9.45;3.03;;;691.80;768.00;;;;;;5069925;28;20385;-78
2021/05/09 11:59:42;;;;;;;5.35;2.97;;;691.90;742.40;;;;;;5074029;28;20115;-78
2021/05/09 12:02:16;;;;;;;4.57;2.05;;;691.20;742.40;;;;;;5092039;28;20055;-78
2021/05/09 12:04:53;;;;;;;4.97;3.00;;;691.30;768.00;;;;;;5074366;28;20028;-79
2021/05/09 12:07:21;;;;;;;5.78;3.90;;;691.40;768.00;;;;;;5096446;28;20036;-79
2021/05/09 12:09:53;;;;;;;8.20;4.82;;;691.80;768.00;;;;;;5078322;28;20028;-78
2021/05/09 12:12:20;;;;;;;;;;;691.90;742.40;;;;;;5064919;28;20037;-79
2021/05/09 12:14:47;;;;;;;5.78;3.38;;;716.80;768.00;;;;;;5057737;28;19908;-79
2021/05/09 12:17:27;;;;;;;7.22;3.10;;;716.80;768.00;;;;;;5058056;28;20115;-79
2021/05/09 12:19:54;;;;;;;5.75;3.22;;;716.90;768.00;;;;;;5057401;28;20028;-79
2021/05/09 12:22:21;;;;;;;5.15;1.98;;;716.90;742.40;;;;;;5072738;28;20490;-81
2021/05/09 12:24:52;;;;;;;8.85;5.47;;;717.00;742.40;;;;;;5074092;28;20028;-78
2021/05/09 12:27:19;;;;;;;6.40;3.65;;;717.20;793.60;;;;;;5074052;28;20024;-78
2021/05/09 12:29:53;;;;;;;10.35;2.97;;;717.40;742.40;;;;;;5078289;28;20036;-80
2021/05/09 12:32:22;;;;;;;6.05;4.10;;;717.50;793.60;;;;;;5079033;28;20066;-80
2021/05/09 12:35:07;;;;;;;7.05;3.28;;;717.40;768.00;;;;;;5078532;28;20055;-80
2021/05/09 12:37:53;;;;;;;12.13;5.45;;;717.10;793.60;;;;;;5078731;28;20028;-81
2021/05/09 12:40:23;;;;;;;9.55;3.75;;;717.40;742.40;;;;;;5067731;28;20028;-77
2021/05/09 12:43:10;;;;;;;10.18;4.18;;;717.40;716.80;;;;;;5078031;28;20056;-78
2021/05/09 12:45:41;;;;;;;10.07;3.65;;;717.70;742.40;;;;;;5096524;28;20404;-79
2021/05/09 12:48:13;;;;;;;5.90;3.55;;;717.70;742.40;;;;;;5078209;28;20036;-77
2021/05/09 12:50:51;;;;;;;5.40;2.25;;;717.50;742.40;;;;;;5096770;28;20484;-77
2021/05/09 12:53:35;;;;;;;6.80;3.00;;;717.70;768.00;;;;;;5078453;28;20032;-76
2021/05/09 12:56:22;;;;;;;7.30;3.05;;;717.60;742.40;;;;;;5078178;28;20024;-78
2021/05/09 12:59:09;;;;;;;8.18;3.47;;;717.60;768.00;;;;;;5096326;28;20016;-78
2021/05/09 13:01:38;;;;;;;3.67;2.22;;;742.50;793.60;;;;;;5096822;28;20377;-78
2021/05/09 13:04:25;;;;;;;4.55;1.80;;;717.40;716.80;;;;;;5078194;28;20523;-78
2021/05/09 13:06:51;;;;;;;4.55;1.77;;;717.70;742.40;;;;;;5078393;28;20035;-78
2021/05/09 13:09:16;;;;;;;7.45;2.40;;;717.70;742.40;;;;;;5078463;28;20107;-80
2021/05/09 13:11:42;;;;;;;5.13;2.08;;;742.40;768.00;;;;;;5096422;28;20028;-80
2021/05/09 13:14:08;;;;;;;5.47;2.42;;;742.50;768.00;;;;;;5078600;28;20122;-79
2021/05/09 13:16:34;;;;;;;4.68;1.80;;;742.50;768.00;;;;;;5076744;28;20020;-80
2021/05/09 13:18:59;;;;;;;6.00;2.30;;;742.80;768.00;;;;;;5077268;28;20115;-79
2021/05/09 13:21:25;;;;;;;8.68;2.53;;;742.70;768.00;;;;;;5078065;28;20078;-77
2021/05/09 13:23:51;;;;;;;5.80;3.17;;;742.80;768.00;;;;;;5077288;28;20491;-78
2021/05/09 13:26:17;;;;;;;5.75;3.67;;;742.60;768.00;;;;;;5095675;28;20032;-81
2021/05/09 13:28:43;;;;;;;5.68;2.50;;;742.70;768.00;;;;;;5077661;28;20032;-80
2021/05/09 13:31:08;;;;;;;9.35;4.93;;;742.80;768.00;;;;;;5077632;28;20028;-77
2021/05/09 13:33:34;;;;;;;3.97;2.08;;;742.80;768.00;;;;;;5096151;28;20028;-76
2021/05/09 13:36:00;;;;;;;4.93;2.97;;;717.70;742.40;;;;;;5077621;28;20024;-75
2021/05/09 13:38:26;;;;;;;4.38;1.58;;;742.40;768.00;;;;;;5077407;28;20438;-76
2021/05/09 13:40:52;;;;;;;5.05;1.83;;;742.50;793.60;;;;;;5077771;28;20373;-75
2021/05/09 13:43:18;;;;;;;4.80;2.00;;;742.50;793.60;;;;;;5095322;28;20485;-75
2021/05/09 13:45:44;;;;;;;6.03;2.05;;;717.60;768.00;;;;;;5095319;28;20032;-75
2021/05/09 13:48:11;;;;;;;2.80;1.40;;;717.30;793.60;;;;;;5077392;28;20139;-77
2021/05/09 13:50:37;;;;;;;6.40;2.35;;;717.60;768.00;;;;;;5095508;28;20103;-77
2021/05/09 13:53:03;;;;;;;3.35;2.00;;;717.70;793.60;;;;;;5095243;28;20456;-77
2021/05/09 13:55:29;;;;;;;4.78;1.88;;;742.70;793.60;;;;;;5095426;28;20031;-77
2021/05/09 13:57:56;;;;;;;4.95;2.05;;;742.90;768.00;;;;;;5095081;28;20031;-78
2021/05/09 14:00:22;;;;;;;4.40;1.80;;;742.90;768.00;;;;;;5095146;28;20055;-76
2021/05/09 14:02:48;;;;;;;4.07;1.73;;;742.90;793.60;;;;;;5094827;28;20431;-76
2021/05/09 14:05:14;;;;;;;3.80;1.80;;;742.90;768.00;;;;;;5077230;28;20027;-76
2021/05/09 14:07:41;;;;;;;3.45;1.67;;;742.90;768.00;;;;;;5077090;28;20028;-76
2021/05/09 14:10:07;;;;;;;13.48;10.18;;;743.00;768.00;;;;;;5076846;28;20028;-79
2021/05/09 14:12:33;;;;;;;6.32;3.25;;;743.10;768.00;;;;;;5094899;28;20032;-76
2021/05/09 14:15:01;;;;;;;9.38;2.85;;;743.20;793.60;;;;;;5094668;28;20080;-76
2021/05/09 14:17:34;;;;;;;9.05;4.38;;;743.00;768.00;;;;;;5094815;28;20024;-76
2021/05/09 14:20:00;;;;;;;9.45;4.70;;;742.90;742.40;;;;;;5057027;28;20028;-76
2021/05/09 14:22:26;;;;;;;6.88;3.88;;;743.00;768.00;;;;;;5073813;28;20420;-78
2021/05/09 14:24:55;;;;;;;5.38;3.15;;;743.20;768.00;;;;;;5055559;28;20082;-77
2021/05/09 14:27:22;;;;;;;10.00;5.28;;;743.20;742.40;;;;;;5056225;28;20424;-76
2021/05/09 14:29:47;;;;;;;6.32;3.08;;;743.00;793.60;;;;;;5055552;28;20029;-78
2021/05/09 14:32:13;;;;;;;8.77;4.28;;;743.00;793.60;;;;;;5057178;28;20089;-78
2021/05/09 14:34:39;;;;;;;7.70;4.07;;;743.10;768.00;;;;;;5056055;28;20036;-75
2021/05/09 14:37:05;;;;;;;6.25;3.22;;;742.80;768.00;;;;;;5074318;28;20496;-80
2021/05/09 14:39:31;;;;;;;5.65;2.30;;;742.90;793.60;;;;;;5056344;28;20119;-77
2021/05/09 14:41:56;;;;;;;8.13;3.05;;;742.70;768.00;;;;;;5055921;28;20075;-77
2021/05/09 14:44:22;;;;;;;6.85;2.95;;;742.90;742.40;;;;;;5055982;28;20033;-78
2021/05/09 14:46:49;;;;;;;6.70;3.03;;;743.00;742.40;;;;;;5055837;28;20121;-76
2021/05/09 14:49:14;;;;;;;8.38;3.95;;;743.00;768.00;;;;;;5074090;28;20032;-76
2021/05/09 14:51:40;;;;;;;6.75;2.95;;;743.10;768.00;;;;;;5056071;28;20504;-75
2021/05/09 14:54:06;;;;;;;4.90;2.35;;;743.10;768.00;;;;;;5055904;28;20074;-76
2021/05/09 14:56:35;;;;;;;3.05;1.55;;;743.10;768.00;;;;;;5056610;28;20490;-80
2021/05/09 14:59:01;;;;;;;4.43;1.95;;;743.00;742.40;;;;;;5074098;28;20111;-77
2021/05/09 15:01:28;;;;;;;3.72;2.10;;;743.00;742.40;;;;;;5055675;28;20109;-77
2021/05/09 15:03:54;;;;;;;6.85;2.17;;;743.00;742.40;;;;;;5056045;28;20036;-75
2021/05/09 15:06:21;;;;;;;10.18;6.72;;;743.00;742.40;;;;;;5056985;28;20028;-76
2021/05/09 15:08:47;;;;;;;11.60;6.57;;;743.00;742.40;;;;;;5072624;28;20024;-77
2021/05/09 15:11:13;;;;;;;5.93;3.42;;;743.00;742.40;;;;;;5075672;28;20034;-78
2021/05/09 15:13:39;;;;;;;5.63;3.25;;;742.90;742.40;;;;;;5075602;28;20028;-80
2021/05/09 15:16:05;;;;;;;6.55;2.70;;;743.00;793.60;;;;;;5094967;28;20107;-79
2021/05/09 15:18:31;;;;;;;6.78;2.38;;;742.80;768.00;;;;;;5090574;28;20017;-80
2021/05/09 15:20:56;;;;;;;9.65;3.40;;;742.60;768.00;;;;;;5055721;28;20385;-79
2021/05/09 15:23:25;;;;;;;6.63;2.40;;;742.40;793.60;;;;;;5054984;28;20504;-77
2021/05/09 15:25:53;;;;;;;6.00;2.35;;;717.70;768.00;;;;;;5073048;28;20029;-79
2021/05/09 15:28:18;;;;;;;5.07;2.10;;;742.40;768.00;;;;;;5073614;28;20024;-77
2021/05/09 15:30:44;;;;;;;6.63;1.92;;;717.50;742.40;;;;;;5073060;28;20480;-79
2021/05/09 15:33:10;;;;;;;3.70;2.20;;;717.50;793.60;;;;;;5055655;28;20025;-77
2021/05/09 15:35:36;;;;;;;6.22;2.55;;;717.40;768.00;;;;;;5055494;28;20024;-77
2021/05/09 15:38:02;;;;;;;4.18;2.08;;;717.50;793.60;;;;;;5055281;28;20112;-77
2021/05/09 15:40:27;;;;;;;4.95;2.20;;;717.20;768.00;;;;;;5056894;28;20516;-76
2021/05/09 15:42:53;;;;;;;6.05;2.15;;;716.80;768.00;;;;;;5077371;28;20068;-78
2021/05/09 15:45:19;;;;;;;4.15;2.30;;;716.90;793.60;;;;;;5059692;28;20086;-79
2021/05/09 15:47:45;;;;;;;6.30;2.20;;;716.80;793.60;;;;;;5060083;28;20461;-78
2021/05/09 15:50:11;;;;;;;5.85;3.55;;;716.80;793.60;;;;;;5058568;28;20034;-76
2021/05/09 15:52:38;;;;;;;6.55;2.90;;;716.80;793.60;;;;;;5059225;28;20036;-77
2021/05/09 15:55:05;;;;;;;6.15;3.15;;;691.30;768.00;;;;;;5058330;28;20025;-78
2021/05/09 15:57:30;;;;;;;4.25;2.63;;;691.90;793.60;;;;;;5066706;28;20024;-78
2021/05/09 15:59:56;;;;;;;19.77;15.68;;;691.30;819.20;;;;;;5078129;28;20554;-77
2021/05/09 16:02:22;;;;;;;20.35;12.68;;;666.40;819.20;;;;;;5097097;28;20031;-78
2021/05/09 16:04:48;;;;;;;7.93;3.78;;;666.20;844.80;;;;;;5078637;28;20032;-77
2021/05/09 16:07:14;;;;;;;7.05;3.80;;;665.90;870.40;;;;;;5097469;28;20377;-78
2021/05/09 16:09:40;;;;;;;6.78;2.80;;;665.80;844.80;;;;;;5079488;28;20020;-77
2021/05/09 16:12:07;;;;;;;5.43;3.13;;;665.60;844.80;;;;;;5078881;28;20350;-76
2021/05/09 16:14:33;;;;;;;7.55;3.33;;;640.90;844.80;;;;;;5079291;28;20128;-76
2021/05/09 16:16:59;;;;;;;6.72;2.78;;;640.70;844.80;;;;;;5079292;28;20035;-76
2021/05/09 16:19:26;;;;;;;5.18;2.70;;;640.60;844.80;;;;;;5096857;28;20028;-77
2021/05/09 16:21:52;;;;;;;5.03;2.63;;;640.60;844.80;;;;;;5078917;28;20032;-76
2021/05/09 16:24:19;;;;;;;9.85;3.80;;;640.50;896.00;;;;;;5097163;28;20468;-77
2021/05/09 16:26:45;;;;;;;6.10;3.53;;;640.20;870.40;;;;;;5078525;28;20059;-78
2021/05/09 16:29:11;;;;;;;8.40;3.95;;;640.20;870.40;;;;;;5078878;28;20028;-78
2021/05/09 16:31:37;;;;;;;10.88;3.95;;;640.10;921.60;;;;;;5078679;28;20020;-75
2021/05/09 16:34:03;;;;;;;7.53;3.55;;;640.00;921.60;;;;;;5078635;28;20089;-77
2021/05/09 16:36:30;;;;;;;7.15;2.83;;;615.30;896.00;;;;;;5078729;28;20024;-76
2021/05/09 16:38:56;;;;;;;7.30;3.28;;;665.60;921.60;;;;;;5096650;28;20081;-77
2021/05/09 16:41:23;;;;;;;5.57;2.78;;;615.20;921.60;;;;;;5096822;28;20047;-76
2021/05/09 16:43:48;;;;;;;6.45;3.60;;;615.20;947.20;;;;;;5096427;28;20116;-76
2021/05/09 16:46:14;;;;;;;9.10;2.80;;;614.90;947.20;;;;;;5078227;28;20137;-79
2021/05/09 16:48:40;;;;;;;10.85;3.28;;;614.80;998.40;;;;;;5079322;28;20028;-77
2021/05/09 16:51:06;;;;;;;11.35;4.10;;;614.50;1024.00;;;;;;5077896;28;20060;-77
2021/05/09 16:53:46;;;;;;;7.93;3.85;;;614.40;1024.00;;;;;;5077650;28;20055;-79
2021/05/09 16:56:12;;;;;;;10.15;3.30;;;589.60;1049.60;;;;;;5078803;28;20020;-77
2021/05/09 16:58:38;;;;;;;9.73;3.60;;;589.50;1049.60;;;;;;5096460;28;20047;-76
2021/05/09 17:01:04;;;;;;;12.10;3.28;;;589.30;1075.20;;;;;;5077501;28;20055;-77
2021/05/09 17:03:30;;;;;;;7.22;3.25;;;589.10;1075.20;;;;;;5096169;28;20020;-76
2021/05/09 17:05:56;;;;;;;7.93;3.38;;;589.00;1100.80;;;;;;5078021;28;20542;-76
2021/05/09 17:08:21;;;;;;;7.65;3.00;;;588.90;1100.80;;;;;;5076699;28;20217;-79
2021/05/09 17:10:48;;;;;;;9.15;3.78;;;564.10;1126.40;;;;;;5069775;28;20020;-78
2021/05/09 17:13:47;;;;;;;7.60;4.85;;;563.90;1152.00;;;;;;5060292;28;20029;-78
2021/05/09 17:16:06;;;;;;;9.80;8.20;;;563.80;1177.60;;;;;;5072892;28;20041;-77
2021/05/09 17:18:33;;;;;;;16.65;9.57;;;563.60;1152.00;;;;;;5086561;28;20460;-78
2021/05/09 17:20:59;;;;;;;18.48;12.63;;;563.70;1152.00;;;;;;5089760;28;20116;-77
2021/05/09 17:23:25;;;;;;;10.48;5.78;;;563.50;1177.60;;;;;;5075605;28;20032;-77
2021/05/09 17:25:51;;;;;;;9.93;4.88;;;563.40;1203.20;;;;;;5075168;28;20042;-78
2021/05/09 17:28:17;;;;;;;14.70;6.07;;;538.50;1177.60;;;;;;5076294;28;20078;-78
2021/05/09 17:30:47;;;;;;;11.85;6.43;;;538.50;1177.60;;;;;;5075973;28;20027;-76
2021/05/09 17:33:14;;;;;;;9.38;6.10;;;538.20;1177.60;;;;;;5076934;28;20032;-77
2021/05/09 17:35:40;;;;;;;11.35;6.55;;;538.40;1177.60;;;;;;5072856;28;20036;-77
2021/05/09 17:38:07;;;;;;;17.75;7.05;;;538.20;1203.20;;;;;;5072089;28;20386;-76
2021/05/09 17:40:33;;;;;;;17.63;7.57;;;538.00;1203.20;;;;;;5072714;28;20119;-77
2021/05/09 17:43:01;;;;;;;16.73;8.80;;;537.80;1228.80;;;;;;5074262;28;20437;-77
2021/05/09 17:45:27;;;;;;;19.17;9.88;;;537.70;1228.80;;;;;;5091643;28;20536;-78
2021/05/09 17:47:53;;;;;;;12.23;8.65;;;537.60;1228.80;;;;;;5076334;28;20028;-77
2021/05/09 17:50:19;;;;;;;15.82;8.45;;;537.70;1254.40;;;;;;5076009;28;20119;-77
2021/05/09 17:52:45;;;;;;;13.70;8.57;;;537.60;1254.40;;;;;;5076270;28;20488;-77